sensor_id;sensor_type;location;lat;lon;timestamp;temperature;humidity
12847;DHT22;6492;48.128;8.320;2022-08-11T07:30:10;18.90;4.20
12847;DHT22;6492;48.128;8.320;2022-08-11T07:34:16;20.50;1.40
12847;DHT22;6492;48.128;8.320;2022-08-11T07:38:22;22.30;1.00
12847;DHT22;6492;48.128;8.320;2022-08-11T07:42:42;23.80;1.00
12847;DHT22;6492;48.128;8.320;2022-08-11T07:46:48;25.20;1.00
12847;DHT22;6492;48.128;8.320;2022-08-11T07:51:23;26.40;1.00
12847;DHT22;6492;48.128;8.320;2022-08-11T07:55:42;27.20;1.00
12847;DHT22;6492;48.128;8.320;2022-08-11T07:59:45;27.70;1.00
12847;DHT22;6492;48.128;8.320;2022-08-11T08:04:07;28.10;1.00
12847;DHT22;6492;48.128;8.320;2022-08-11T08:08:26;28.20;1.00
12847;DHT22;6492;48.128;8.320;2022-08-11T08:12:45;28.10;1.00
12847;DHT22;6492;48.128;8.320;2022-08-11T08:17:06;28.40;1.00
12847;DHT22;6492;48.128;8.320;2022-08-11T08:21:28;28.50;1.00
12847;DHT22;6492;48.128;8.320;2022-08-11T08:25:32;28.60;1.00
12847;DHT22;6492;48.128;8.320;2022-08-11T08:29:36;28.80;1.00
12847;DHT22;6492;48.128;8.320;2022-08-11T08:33:56;28.60;1.00
12847;DHT22;6492;48.128;8.320;2022-08-11T08:38:00;28.40;1.00
12847;DHT22;6492;48.128;8.320;2022-08-11T08:42:06;28.40;1.00
12847;DHT22;6492;48.128;8.320;2022-08-11T08:46:11;28.20;1.00
12847;DHT22;6492;48.128;8.320;2022-08-11T08:50:16;27.90;1.00
12847;DHT22;6492;48.128;8.320;2022-08-11T08:54:24;27.00;1.00
12847;DHT22;6492;48.128;8.320;2022-08-11T08:58:27;27.00;1.00
12847;DHT22;6492;48.128;8.320;2022-08-11T09:02:31;27.10;1.00
12847;DHT22;6492;48.128;8.320;2022-08-11T09:06:34;26.40;1.00
12847;DHT22;6492;48.128;8.320;2022-08-11T09:10:40;26.20;1.00
12847;DHT22;6492;48.128;8.320;2022-08-11T09:14:45;26.30;1.00
12847;DHT22;6492;48.128;8.320;2022-08-11T09:19:04;26.30;1.00
12847;DHT22;6492;48.128;8.320;2022-08-11T09:23:08;26.40;1.00
12847;DHT22;6492;48.128;8.320;2022-08-11T09:27:29;26.60;1.00
12847;DHT22;6492;48.128;8.320;2022-08-11T09:31:32;26.80;1.00
12847;DHT22;6492;48.128;8.320;2022-08-11T09:35:35;27.20;1.00
12847;DHT22;6492;48.128;8.320;2022-08-11T09:39:40;27.50;1.00
12847;DHT22;6492;48.128;8.320;2022-08-11T09:44:16;27.80;1.00
12847;DHT22;6492;48.128;8.320;2022-08-11T09:48:38;28.10;1.00
12847;DHT22;6492;48.128;8.320;2022-08-11T09:52:41;28.20;1.00
12847;DHT22;6492;48.128;8.320;2022-08-11T09:56:45;28.50;1.00
12847;DHT22;6492;48.128;8.320;2022-08-11T10:01:06;28.30;1.00
12847;DHT22;6492;48.128;8.320;2022-08-11T10:05:26;28.30;1.00
12847;DHT22;6492;48.128;8.320;2022-08-11T10:09:50;28.70;1.00
12847;DHT22;6492;48.128;8.320;2022-08-11T10:13:53;29.00;1.00
12847;DHT22;6492;48.128;8.320;2022-08-11T10:18:17;29.30;1.00
12847;DHT22;6492;48.128;8.320;2022-08-11T10:22:39;29.50;1.00
12847;DHT22;6492;48.128;8.320;2022-08-11T10:26:58;29.60;1.00
12847;DHT22;6492;48.128;8.320;2022-08-11T10:31:04;29.70;1.00
12847;DHT22;6492;48.128;8.320;2022-08-11T10:35:25;29.70;1.00
12847;DHT22;6492;48.128;8.320;2022-08-11T10:39:27;29.90;1.00
12847;DHT22;6492;48.128;8.320;2022-08-11T10:43:29;30.30;1.00
12847;DHT22;6492;48.128;8.320;2022-08-11T10:47:31;30.40;1.00
12847;DHT22;6492;48.128;8.320;2022-08-11T10:51:37;30.60;1.00
12847;DHT22;6492;48.128;8.320;2022-08-11T10:55:57;31.00;1.00
12847;DHT22;6492;48.128;8.320;2022-08-11T11:00:17;31.40;1.00
12847;DHT22;6492;48.128;8.320;2022-08-11T11:04:23;31.50;1.00
12847;DHT22;6492;48.128;8.320;2022-08-11T11:08:31;31.80;1.00
12847;DHT22;6492;48.128;8.320;2022-08-11T11:12:54;31.60;1.00
12847;DHT22;6492;48.128;8.320;2022-08-11T11:17:14;31.50;1.00
12847;DHT22;6492;48.128;8.320;2022-08-11T11:21:37;31.30;1.00
12847;DHT22;6492;48.128;8.320;2022-08-11T11:25:57;31.30;1.00
12847;DHT22;6492;48.128;8.320;2022-08-11T11:30:15;31.30;1.00
12847;DHT22;6492;48.128;8.320;2022-08-11T11:34:36;30.90;1.00
12847;DHT22;6492;48.128;8.320;2022-08-11T11:38:41;31.20;1.00
12847;DHT22;6492;48.128;8.320;2022-08-11T11:42:45;31.70;1.00
12847;DHT22;6492;48.128;8.320;2022-08-11T11:46:48;32.20;1.00
12847;DHT22;6492;48.128;8.320;2022-08-11T11:50:51;32.40;1.00
12847;DHT22;6492;48.128;8.320;2022-08-11T11:54:55;32.50;1.00
12847;DHT22;6492;48.128;8.320;2022-08-11T11:58:59;32.70;1.00
12847;DHT22;6492;48.128;8.320;2022-08-11T12:03:19;33.00;1.00
12847;DHT22;6492;48.128;8.320;2022-08-11T12:07:22;33.10;1.00
12847;DHT22;6492;48.128;8.320;2022-08-11T12:11:42;32.90;1.00
12847;DHT22;6492;48.128;8.320;2022-08-11T12:16:03;33.00;1.00
12847;DHT22;6492;48.128;8.320;2022-08-11T12:20:06;32.90;1.00
12847;DHT22;6492;48.128;8.320;2022-08-11T12:24:09;33.00;1.00
12847;DHT22;6492;48.128;8.320;2022-08-11T12:28:29;33.20;1.00
12847;DHT22;6492;48.128;8.320;2022-08-11T12:32:36;33.60;1.00
12847;DHT22;6492;48.128;8.320;2022-08-11T12:36:39;33.40;1.00
12847;DHT22;6492;48.128;8.320;2022-08-11T12:40:42;33.30;1.00
12847;DHT22;6492;48.128;8.320;2022-08-11T12:45:02;32.60;1.00
12847;DHT22;6492;48.128;8.320;2022-08-11T12:49:30;32.90;1.00
12847;DHT22;6492;48.128;8.320;2022-08-11T12:53:56;33.20;1.00
12847;DHT22;6492;48.128;8.320;2022-08-11T12:58:00;33.50;1.00
12847;DHT22;6492;48.128;8.320;2022-08-11T13:02:21;33.80;1.00
12847;DHT22;6492;48.128;8.320;2022-08-11T13:06:42;34.20;1.00
12847;DHT22;6492;48.128;8.320;2022-08-11T13:10:44;34.00;1.00
12847;DHT22;6492;48.128;8.320;2022-08-11T13:15:05;34.00;1.00
12847;DHT22;6492;48.128;8.320;2022-08-11T13:19:08;34.20;1.00
12847;DHT22;6492;48.128;8.320;2022-08-11T13:23:12;33.90;1.00
12847;DHT22;6492;48.128;8.320;2022-08-11T13:27:15;33.90;1.00
12847;DHT22;6492;48.128;8.320;2022-08-11T13:31:18;34.00;1.00
12847;DHT22;6492;48.128;8.320;2022-08-11T13:35:21;34.20;1.00
12847;DHT22;6492;48.128;8.320;2022-08-11T13:39:27;34.40;1.00
12847;DHT22;6492;48.128;8.320;2022-08-11T13:43:30;34.70;1.00
12847;DHT22;6492;48.128;8.320;2022-08-11T13:47:32;34.60;1.00
12847;DHT22;6492;48.128;8.320;2022-08-11T13:51:36;34.40;1.00
12847;DHT22;6492;48.128;8.320;2022-08-11T13:55:41;33.70;1.00
12847;DHT22;6492;48.128;8.320;2022-08-11T13:59:44;33.10;1.00
12847;DHT22;6492;48.128;8.320;2022-08-11T14:03:47;33.30;1.00
12847;DHT22;6492;48.128;8.320;2022-08-11T14:07:51;33.70;1.00
12847;DHT22;6492;48.128;8.320;2022-08-11T14:11:59;34.10;1.00
12847;DHT22;6492;48.128;8.320;2022-08-11T14:16:23;34.30;1.00
12847;DHT22;6492;48.128;8.320;2022-08-11T14:20:28;34.40;1.00
12847;DHT22;6492;48.128;8.320;2022-08-11T14:24:51;34.40;1.00
12847;DHT22;6492;48.128;8.320;2022-08-11T14:28:58;34.50;1.00
12847;DHT22;6492;48.128;8.320;2022-08-11T14:33:01;34.40;1.00
12847;DHT22;6492;48.128;8.320;2022-08-11T14:37:07;34.20;1.00
12847;DHT22;6492;48.128;8.320;2022-08-11T14:41:11;34.20;1.00
12847;DHT22;6492;48.128;8.320;2022-08-11T14:45:32;34.40;1.00
12847;DHT22;6492;48.128;8.320;2022-08-11T14:49:54;34.20;1.00
12847;DHT22;6492;48.128;8.320;2022-08-11T14:53:56;33.90;1.00
12847;DHT22;6492;48.128;8.320;2022-08-11T14:58:23;33.80;1.00
12847;DHT22;6492;48.128;8.320;2022-08-11T15:02:27;33.80;1.00
12847;DHT22;6492;48.128;8.320;2022-08-11T15:06:47;33.40;1.00
12847;DHT22;6492;48.128;8.320;2022-08-11T15:10:51;33.20;1.00
12847;DHT22;6492;48.128;8.320;2022-08-11T15:14:53;33.40;1.00
12847;DHT22;6492;48.128;8.320;2022-08-11T15:19:15;33.60;1.00
12847;DHT22;6492;48.128;8.320;2022-08-11T15:23:20;33.70;1.00
12847;DHT22;6492;48.128;8.320;2022-08-11T15:27:40;33.60;1.00
12847;DHT22;6492;48.128;8.320;2022-08-11T15:32:00;33.60;1.00
12847;DHT22;6492;48.128;8.320;2022-08-11T15:36:24;33.60;1.00
12847;DHT22;6492;48.128;8.320;2022-08-11T15:40:44;33.60;1.00
12847;DHT22;6492;48.128;8.320;2022-08-11T15:45:06;33.20;1.00
12847;DHT22;6492;48.128;8.320;2022-08-11T15:49:30;32.90;1.00
12847;DHT22;6492;48.128;8.320;2022-08-11T15:53:40;32.50;1.00
12847;DHT22;6492;48.128;8.320;2022-08-11T15:57:44;32.30;1.00
12847;DHT22;6492;48.128;8.320;2022-08-11T16:02:07;32.30;1.00
12847;DHT22;6492;48.128;8.320;2022-08-11T16:06:26;32.40;1.00
12847;DHT22;6492;48.128;8.320;2022-08-11T16:10:30;32.20;1.00
12847;DHT22;6492;48.128;8.320;2022-08-11T16:14:38;32.30;1.00
12847;DHT22;6492;48.128;8.320;2022-08-11T16:19:00;32.60;1.00
12847;DHT22;6492;48.128;8.320;2022-08-11T16:23:06;32.60;1.00
12847;DHT22;6492;48.128;8.320;2022-08-11T16:27:11;32.40;1.00
12847;DHT22;6492;48.128;8.320;2022-08-11T16:31:14;32.10;1.00
12847;DHT22;6492;48.128;8.320;2022-08-11T16:35:18;31.80;1.00
12847;DHT22;6492;48.128;8.320;2022-08-11T16:39:38;31.50;1.00
12847;DHT22;6492;48.128;8.320;2022-08-11T16:43:45;31.30;1.00
12847;DHT22;6492;48.128;8.320;2022-08-11T16:48:18;31.20;1.00
12847;DHT22;6492;48.128;8.320;2022-08-11T16:52:21;31.10;1.00
12847;DHT22;6492;48.128;8.320;2022-08-11T16:56:27;30.90;1.00
12847;DHT22;6492;48.128;8.320;2022-08-11T17:00:33;31.00;1.00
12847;DHT22;6492;48.128;8.320;2022-08-11T17:04:38;31.00;1.00
12847;DHT22;6492;48.128;8.320;2022-08-11T17:09:02;30.70;1.00
12847;DHT22;6492;48.128;8.320;2022-08-11T17:13:27;30.60;1.00
12847;DHT22;6492;48.128;8.320;2022-08-11T17:17:34;30.30;1.00
12847;DHT22;6492;48.128;8.320;2022-08-11T17:21:39;29.90;1.00
12847;DHT22;6492;48.128;8.320;2022-08-11T17:26:01;29.50;1.00
12847;DHT22;6492;48.128;8.320;2022-08-11T17:30:05;29.10;1.00
12847;DHT22;6492;48.128;8.320;2022-08-11T17:34:10;28.90;1.00
12847;DHT22;6492;48.128;8.320;2022-08-11T17:38:31;28.20;1.00
12847;DHT22;6492;48.128;8.320;2022-08-11T17:42:34;27.60;1.00
12847;DHT22;6492;48.128;8.320;2022-08-11T17:46:56;27.00;1.00
12847;DHT22;6492;48.128;8.320;2022-08-11T17:51:18;26.60;1.00
12847;DHT22;6492;48.128;8.320;2022-08-11T17:55:36;26.20;1.00
12847;DHT22;6492;48.128;8.320;2022-08-11T17:59:58;25.80;1.00
12847;DHT22;6492;48.128;8.320;2022-08-11T18:04:02;25.40;1.00
12847;DHT22;6492;48.128;8.320;2022-08-11T18:08:08;25.20;1.00
12847;DHT22;6492;48.128;8.320;2022-08-11T18:12:28;25.00;1.00
12847;DHT22;6492;48.128;8.320;2022-08-11T18:16:48;24.70;1.00
12847;DHT22;6492;48.128;8.320;2022-08-11T18:21:07;24.30;1.00
12847;DHT22;6492;48.128;8.320;2022-08-11T18:25:31;23.90;1.00
12847;DHT22;6492;48.128;8.320;2022-08-11T18:29:52;23.30;1.00
12847;DHT22;6492;48.128;8.320;2022-08-11T18:34:15;22.90;1.00
12847;DHT22;6492;48.128;8.320;2022-08-11T18:38:37;22.40;1.00
12847;DHT22;6492;48.128;8.320;2022-08-11T18:43:09;22.00;1.00
12847;DHT22;6492;48.128;8.320;2022-08-11T18:47:29;21.60;1.00
12847;DHT22;6492;48.128;8.320;2022-08-11T18:51:52;21.30;1.00
12847;DHT22;6492;48.128;8.320;2022-08-11T18:56:14;20.90;1.00
